Time;durP1;ratioP1;P1;durP2;ratioP2;P2;SDS_P1;SDS_P2;PMS_P1;PMS_P2;Temp;Humidity;BMP_temperature;BMP_pressure;BME280_temperature;BME280_humidity;BME280_pressure;Samples;Min_cycle;Max_cycle;Signal;HPM_P1;HPM_P2
2023/03/30 00:02:37;;;;;;;5.47;3.78;;;11.50;99.90;;;;;;10523527;28;20047;-64
2023/03/30 00:07:41;;;;;;;5.20;3.67;;;11.50;99.90;;;;;;10518674;28;20032;-64
2023/03/30 00:12:42;;;;;;;7.93;3.33;;;11.60;99.90;;;;;;10527586;28;20483;-64
2023/03/30 00:17:43;;;;;;;5.38;3.63;;;11.60;99.90;;;;;;10523490;28;20111;-63
2023/03/30 00:22:45;;;;;;;6.22;3.47;;;11.60;99.90;;;;;;10523707;28;20035;-64
2023/03/30 00:27:46;;;;;;;4.97;3.38;;;11.60;99.90;;;;;;10523027;28;20103;-64
2023/03/30 00:32:46;;;;;;;5.47;3.45;;;11.50;99.90;;;;;;10526138;28;20028;-63
2023/03/30 00:37:48;;;;;;;3.75;2.90;;;11.50;99.90;;;;;;10523297;28;20050;-64
2023/03/30 00:42:49;;;;;;;5.55;3.22;;;11.50;99.90;;;;;;10524705;28;20046;-64
2023/03/30 00:47:55;;;;;;;5.43;3.28;;;11.50;99.90;;;;;;10524649;28;20496;-64
2023/03/30 00:52:57;;;;;;;4.45;3.35;;;11.50;99.90;;;;;;10524159;28;20080;-64
2023/03/30 00:57:59;;;;;;;6.65;3.15;;;11.60;99.90;;;;;;10524449;28;20051;-65
2023/03/30 01:03:04;;;;;;;6.43;3.25;;;11.60;99.90;;;;;;10521352;28;20020;-64
2023/03/30 01:08:06;;;;;;;5.53;3.20;;;11.60;99.90;;;;;;10525292;28;20020;-64
2023/03/30 01:13:06;;;;;;;5.55;3.05;;;11.50;99.90;;;;;;10525389;28;20020;-64
2023/03/30 01:18:23;;;;;;;8.57;3.88;;;11.60;99.90;;;;;;10522774;28;20023;-64
2023/03/30 01:23:38;;;;;;;3.85;2.85;;;11.60;99.90;;;;;;10523930;28;20073;-65
2023/03/30 01:29:01;;;;;;;3.63;2.83;;;11.60;99.90;;;;;;10520069;28;20031;-64
2023/03/30 01:34:20;;;;;;;4.65;2.85;;;11.60;99.90;;;;;;10524288;28;20434;-64
2023/03/30 01:39:40;;;;;;;9.75;3.20;;;11.60;99.90;;;;;;10523395;28;20031;-64
2023/03/30 01:44:47;;;;;;;10.27;3.10;;;11.60;99.90;;;;;;10518955;28;20084;-63
2023/03/30 01:50:01;;;;;;;5.93;2.80;;;11.60;99.90;;;;;;10523792;28;20103;-64
2023/03/30 01:55:07;;;;;;;5.43;2.40;;;11.60;99.90;;;;;;10513362;28;20435;-64
2023/03/30 02:00:13;;;;;;;4.97;2.95;;;11.60;99.90;;;;;;10515587;28;20047;-63
2023/03/30 02:05:16;;;;;;;3.58;2.38;;;11.60;99.90;;;;;;10513213;28;20017;-64
2023/03/30 02:10:20;;;;;;;4.18;2.50;;;11.70;99.90;;;;;;10521218;28;20250;-64
2023/03/30 02:15:22;;;;;;;3.60;2.80;;;11.60;99.90;;;;;;10512006;28;20028;-64
2023/03/30 02:20:22;;;;;;;4.35;2.50;;;11.60;99.90;;;;;;10517058;28;20028;-64
2023/03/30 02:25:23;;;;;;;4.70;2.63;;;11.70;99.90;;;;;;10511648;28;20012;-64
2023/03/30 02:30:24;;;;;;;5.43;2.45;;;11.60;99.90;;;;;;10511197;28;20356;-64
2023/03/30 02:35:57;;;;;;;4.32;2.58;;;11.60;99.90;;;;;;10517641;28;20028;-64
2023/03/30 02:41:23;;;;;;;4.90;2.60;;;11.70;99.90;;;;;;10522191;28;20104;-64
2023/03/30 02:46:35;;;;;;;6.03;2.58;;;11.70;99.90;;;;;;10525252;28;20436;-64
2023/03/30 02:51:41;;;;;;;4.38;2.40;;;11.70;99.90;;;;;;10522972;28;20426;-64
2023/03/30 02:56:52;;;;;;;4.25;2.15;;;11.70;99.90;;;;;;10525721;28;20020;-64
2023/03/30 03:02:03;;;;;;;3.50;2.10;;;11.60;99.90;;;;;;10523186;28;20040;-64
2023/03/30 03:07:04;;;;;;;3.80;2.35;;;11.60;99.90;;;;;;10522602;28;20115;-64
2023/03/30 03:12:04;;;;;;;5.70;2.72;;;11.70;99.90;;;;;;10521930;28;20055;-64
2023/03/30 03:17:05;;;;;;;3.53;2.20;;;11.70;99.90;;;;;;10522905;28;20376;-64
2023/03/30 03:22:06;;;;;;;4.07;2.42;;;11.60;99.90;;;;;;10522790;28;20016;-63
2023/03/30 03:27:07;;;;;;;4.82;2.28;;;11.70;99.90;;;;;;10520488;28;20028;-64
2023/03/30 03:32:08;;;;;;;5.05;2.45;;;11.70;99.90;;;;;;10515800;28;20484;-63
2023/03/30 03:37:09;;;;;;;4.55;2.10;;;11.70;99.90;;;;;;10527933;28;20036;-64
2023/03/30 03:42:10;;;;;;;6.95;2.92;;;11.70;99.90;;;;;;10523882;28;20020;-64
2023/03/30 03:47:12;;;;;;;3.13;2.20;;;11.70;99.90;;;;;;10523732;28;20012;-63
2023/03/30 03:52:12;;;;;;;3.67;2.28;;;11.70;99.90;;;;;;10522501;28;20020;-64
2023/03/30 03:57:13;;;;;;;3.55;2.30;;;11.70;99.90;;;;;;10515872;28;20038;-63
2023/03/30 04:02:14;;;;;;;3.85;2.10;;;11.70;99.90;;;;;;10522196;28;20020;-64
2023/03/30 04:07:14;;;;;;;3.90;2.13;;;11.70;99.90;;;;;;10520848;28;20130;-64
2023/03/30 04:12:15;;;;;;;3.08;1.80;;;11.70;99.90;;;;;;10523780;28;20024;-64
2023/03/30 04:17:15;;;;;;;3.15;1.77;;;11.70;99.90;;;;;;10521151;28;20208;-63
2023/03/30 04:22:18;;;;;;;4.18;2.13;;;11.70;99.90;;;;;;10522571;28;20127;-64
2023/03/30 04:27:19;;;;;;;4.22;2.03;;;11.70;99.90;;;;;;10516601;28;20024;-64
2023/03/30 04:32:19;;;;;;;6.22;2.50;;;11.70;99.90;;;;;;10518378;28;20407;-64
2023/03/30 04:37:22;;;;;;;3.83;1.92;;;11.70;99.90;;;;;;10526238;28;20049;-64
2023/03/30 04:42:29;;;;;;;3.72;1.83;;;11.70;99.90;;;;;;10521121;28;20043;-63
2023/03/30 04:47:30;;;;;;;2.50;1.80;;;11.70;99.90;;;;;;10517451;28;20231;-63
2023/03/30 04:52:30;;;;;;;7.78;2.00;;;11.70;99.90;;;;;;10524882;28;20024;-64
2023/03/30 04:57:31;;;;;;;3.00;1.75;;;11.90;99.90;;;;;;10520925;28;20543;-64
2023/03/30 05:02:32;;;;;;;3.45;2.00;;;11.70;99.90;;;;;;10519406;28;20039;-64
2023/03/30 05:07:32;;;;;;;4.68;2.03;;;11.70;99.90;;;;;;10516357;28;20024;-64
2023/03/30 05:12:33;;;;;;;6.18;1.95;;;11.80;99.90;;;;;;10521975;28;20055;-64
2023/03/30 05:17:34;;;;;;;4.15;1.88;;;11.80;99.90;;;;;;10522836;28;20020;-63
2023/03/30 05:22:35;;;;;;;3.88;2.00;;;11.80;99.90;;;;;;10524993;28;20019;-63
2023/03/30 05:27:35;;;;;;;4.20;1.77;;;11.80;99.90;;;;;;10516871;28;20107;-64
2023/03/30 05:32:36;;;;;;;3.22;1.70;;;11.70;99.90;;;;;;10514228;28;20353;-64
2023/03/30 05:37:37;;;;;;;6.32;1.90;;;11.80;99.90;;;;;;10519510;28;20077;-63
2023/03/30 05:42:38;;;;;;;2.55;1.70;;;11.80;99.90;;;;;;10520411;28;20028;-64
2023/03/30 05:47:38;;;;;;;3.80;1.98;;;11.80;99.90;;;;;;10512546;28;20016;-64
2023/03/30 05:52:40;;;;;;;2.92;1.55;;;11.80;99.90;;;;;;10514055;28;20012;-64
2023/03/30 05:57:40;;;;;;;2.47;1.48;;;11.80;99.90;;;;;;10518496;28;20020;-64
2023/03/30 06:02:41;;;;;;;3.80;1.70;;;11.80;99.90;;;;;;10501438;28;20426;-64
2023/03/30 06:07:42;;;;;;;3.60;1.92;;;11.80;99.90;;;;;;10529338;28;20488;-64
2023/03/30 06:12:43;;;;;;;3.70;1.95;;;11.80;99.90;;;;;;10536546;28;20269;-64
2023/03/30 06:17:43;;;;;;;4.32;1.80;;;11.80;99.90;;;;;;10531557;28;20024;-63
2023/03/30 06:22:44;;;;;;;3.20;1.50;;;12.00;99.90;;;;;;10534614;28;20058;-65
2023/03/30 06:27:46;;;;;;;3.05;1.58;;;11.90;99.90;;;;;;10534145;28;20033;-63
2023/03/30 06:32:46;;;;;;;4.85;1.70;;;11.90;99.90;;;;;;10529380;28;20030;-63
2023/03/30 06:37:47;;;;;;;2.53;1.33;;;11.90;99.90;;;;;;10528987;28;20042;-62
2023/03/30 06:42:47;;;;;;;2.58;1.67;;;11.90;99.90;;;;;;10528457;28;20032;-63
2023/03/30 06:47:48;;;;;;;2.67;1.60;;;12.00;99.90;;;;;;10529223;28;20032;-63
2023/03/30 06:52:49;;;;;;;5.07;1.50;;;12.00;99.90;;;;;;10529878;28;20063;-64
2023/03/30 06:57:49;;;;;;;4.97;1.50;;;12.00;99.90;;;;;;10527060;28;20036;-63
2023/03/30 07:02:50;;;;;;;4.07;1.40;;;12.00;99.90;;;;;;10533564;28;20571;-64
2023/03/30 07:07:51;;;;;;;3.60;1.67;;;12.00;99.90;;;;;;10529692;28;20028;-64
2023/03/30 07:12:51;;;;;;;5.00;1.67;;;12.10;99.90;;;;;;10524528;28;20054;-64
2023/03/30 07:17:52;;;;;;;5.03;1.40;;;12.10;99.90;;;;;;10529324;28;20114;-63
2023/03/30 07:22:53;;;;;;;5.18;1.83;;;12.10;99.90;;;;;;10526373;28;20016;-64
2023/03/30 07:27:54;;;;;;;3.50;1.30;;;12.10;99.90;;;;;;10524556;28;20028;-63
2023/03/30 07:32:55;;;;;;;2.90;1.42;;;12.10;99.90;;;;;;10525025;28;20035;-64
2023/03/30 07:37:56;;;;;;;8.98;1.85;;;12.10;99.90;;;;;;10520762;28;20030;-63
2023/03/30 07:42:56;;;;;;;5.60;1.67;;;12.10;99.90;;;;;;10519911;28;20034;-64
2023/03/30 07:47:57;;;;;;;2.40;1.35;;;12.10;99.90;;;;;;10524144;28;20024;-64
2023/03/30 07:52:58;;;;;;;2.90;1.50;;;12.10;99.90;;;;;;10521158;28;20039;-62
2023/03/30 07:57:58;;;;;;;5.18;1.40;;;12.10;99.90;;;;;;10522538;28;20055;-63
2023/03/30 08:02:59;;;;;;;7.47;1.83;;;12.10;99.90;;;;;;10523274;28;20024;-63
2023/03/30 08:08:00;;;;;;;4.20;1.63;;;12.10;99.90;;;;;;10521979;28;20032;-63
2023/03/30 08:13:01;;;;;;;7.68;1.70;;;12.10;99.90;;;;;;10518277;28;20075;-63
2023/03/30 08:18:05;;;;;;;5.40;1.73;;;12.10;99.90;;;;;;10524952;28;20399;-64
2023/03/30 08:23:09;;;;;;;8.38;1.65;;;12.10;99.90;;;;;;10517253;28;20571;-64
2023/03/30 08:28:10;;;;;;;5.38;1.70;;;12.10;99.90;;;;;;10524518;28;20032;-64
2023/03/30 08:33:12;;;;;;;5.55;1.80;;;12.10;99.90;;;;;;10527361;28;20387;-63
2023/03/30 08:38:16;;;;;;;5.80;1.95;;;12.10;99.90;;;;;;10524034;28;20105;-62
2023/03/30 08:43:38;;;;;;;6.13;1.88;;;12.20;99.90;;;;;;10525483;28;20062;-63
2023/03/30 08:48:41;;;;;;;5.95;1.85;;;12.20;99.90;;;;;;10523887;28;20028;-63
2023/03/30 08:53:42;;;;;;;9.30;1.98;;;12.20;99.90;;;;;;10526366;28;20023;-64
2023/03/30 08:58:54;;;;;;;9.50;2.15;;;12.30;99.90;;;;;;10526435;28;20511;-63
2023/03/30 09:04:06;;;;;;;9.10;2.00;;;12.30;99.90;;;;;;10518137;28;20123;-63
2023/03/30 09:09:11;;;;;;;10.63;1.92;;;12.30;99.90;;;;;;10517927;28;20035;-64
2023/03/30 09:14:26;;;;;;;13.27;2.95;;;12.40;99.90;;;;;;10521842;28;20024;-64
2023/03/30 09:19:36;;;;;;;7.10;1.60;;;12.40;99.90;;;;;;10521879;28;20035;-64
2023/03/30 09:24:37;;;;;;;6.85;1.40;;;12.40;99.90;;;;;;10520325;28;20086;-63
2023/03/30 09:29:50;;;;;;;7.35;1.67;;;12.40;99.90;;;;;;10526367;28;20077;-64
2023/03/30 09:35:03;;;;;;;11.98;2.30;;;12.50;99.90;;;;;;10521552;28;20050;-63
2023/03/30 09:40:35;;;;;;;8.93;2.13;;;12.50;99.90;;;;;;10507876;28;20036;-63
2023/03/30 09:45:37;;;;;;;7.13;1.60;;;12.50;99.90;;;;;;10500742;28;20103;-64
2023/03/30 09:50:41;;;;;;;7.70;2.50;;;12.60;99.90;;;;;;10522384;28;20036;-64
2023/03/30 09:55:54;;;;;;;6.80;1.63;;;12.60;99.90;;;;;;10524895;28;20026;-64
2023/03/30 10:01:11;;;;;;;4.65;1.80;;;12.60;99.90;;;;;;10522665;28;20062;-63
2023/03/30 10:06:16;;;;;;;5.15;1.83;;;12.70;99.90;;;;;;10521836;28;20107;-64
2023/03/30 10:11:37;;;;;;;5.75;1.80;;;12.60;99.90;;;;;;10521684;28;20023;-63
2023/03/30 10:16:42;;;;;;;9.32;1.90;;;12.70;99.90;;;;;;10516791;28;20569;-63
2023/03/30 10:21:45;;;;;;;7.18;2.22;;;12.70;99.90;;;;;;10525000;28;20036;-64
2023/03/30 10:26:48;;;;;;;8.00;1.33;;;12.70;99.90;;;;;;10527871;28;20111;-64
2023/03/30 10:32:10;;;;;;;4.78;1.55;;;12.80;99.90;;;;;;10520543;28;20399;-64
2023/03/30 10:37:19;;;;;;;8.55;1.33;;;12.80;99.90;;;;;;10521900;28;20436;-64
2023/03/30 10:42:24;;;;;;;8.80;1.70;;;12.90;99.80;;;;;;10523361;28;20492;-63
2023/03/30 10:47:24;;;;;;;7.90;1.73;;;13.10;99.80;;;;;;10522164;28;20021;-64
2023/03/30 10:52:28;;;;;;;9.38;1.42;;;13.00;99.70;;;;;;10528826;28;20028;-63
2023/03/30 10:57:59;;;;;;;2.95;1.23;;;13.10;99.60;;;;;;10531447;28;20020;-63
2023/03/30 11:03:09;;;;;;;7.55;1.20;;;13.50;99.70;;;;;;10526434;28;20036;-64
2023/03/30 11:08:16;;;;;;;6.13;1.25;;;13.10;99.50;;;;;;10525418;28;20027;-63
2023/03/30 11:13:25;;;;;;;3.83;1.38;;;13.20;99.50;;;;;;10530723;28;20051;-64
2023/03/30 11:18:58;;;;;;;10.68;1.67;;;13.30;99.50;;;;;;10528548;28;20035;-63
2023/03/30 11:24:05;;;;;;;4.88;1.52;;;13.20;99.40;;;;;;10527827;28;20039;-64
2023/03/30 11:29:37;;;;;;;7.55;1.15;;;13.30;99.40;;;;;;10523003;28;20149;-63
2023/03/30 11:34:58;;;;;;;7.05;1.30;;;13.30;99.40;;;;;;10521485;28;20024;-64
2023/03/30 11:40:23;;;;;;;5.30;1.70;;;13.40;99.30;;;;;;10529441;28;20063;-63
2023/03/30 11:45:35;;;;;;;7.95;1.70;;;13.40;99.30;;;;;;10522476;28;20044;-63
2023/03/30 11:51:16;;;;;;;9.05;2.25;;;13.50;99.20;;;;;;10518471;28;20028;-62
2023/03/30 11:56:40;;;;;;;5.90;1.48;;;13.50;99.20;;;;;;10525513;28;20457;-63
2023/03/30 12:02:00;;;;;;;10.45;1.77;;;13.60;99.10;;;;;;10521312;28;20095;-63
2023/03/30 12:07:01;;;;;;;9.18;1.70;;;13.70;99.00;;;;;;10523854;28;20500;-65
2023/03/30 12:12:23;;;;;;;10.93;2.08;;;13.80;99.00;;;;;;10523611;28;20024;-64
2023/03/30 12:17:44;;;;;;;8.45;1.50;;;13.90;98.90;;;;;;10528336;28;20597;-64
2023/03/30 12:22:48;;;;;;;9.00;1.48;;;13.90;98.90;;;;;;10524769;28;20012;-64
2023/03/30 12:27:57;;;;;;;7.28;1.10;;;14.00;98.80;;;;;;10527944;28;20051;-64
2023/03/30 12:33:13;;;;;;;7.57;1.48;;;14.00;98.80;;;;;;10524240;28;20032;-64
2023/03/30 12:38:22;;;;;;;8.75;1.67;;;14.00;98.80;;;;;;10523089;28;20020;-63
2023/03/30 12:43:34;;;;;;;9.48;2.45;;;14.10;98.80;;;;;;10522895;28;20028;-64
2023/03/30 12:48:59;;;;;;;11.57;1.60;;;14.10;98.80;;;;;;10525874;28;20028;-63
2023/03/30 12:54:22;;;;;;;8.13;1.90;;;14.20;98.80;;;;;;10523348;28;20024;-64
2023/03/30 12:59:35;;;;;;;7.32;1.75;;;14.30;98.80;;;;;;10518051;28;20035;-62
2023/03/30 13:04:38;;;;;;;3.90;1.35;;;14.30;98.70;;;;;;10520449;28;20519;-64
2023/03/30 13:09:54;;;;;;;10.35;1.45;;;14.40;98.70;;;;;;10518813;28;20017;-64
2023/03/30 13:15:29;;;;;;;9.07;1.80;;;14.40;98.60;;;;;;10515380;28;20036;-64
2023/03/30 13:20:50;;;;;;;5.93;1.40;;;14.50;98.70;;;;;;10521729;28;20639;-63
2023/03/30 13:25:53;;;;;;;6.28;1.50;;;14.40;98.70;;;;;;10517367;28;20032;-64
2023/03/30 13:30:59;;;;;;;7.82;1.77;;;14.40;98.80;;;;;;10522597;28;20076;-63
2023/03/30 13:36:20;;;;;;;8.65;1.55;;;14.40;98.80;;;;;;10524725;28;20035;-63
2023/03/30 13:41:30;;;;;;;7.68;1.65;;;14.50;98.80;;;;;;10519043;28;20480;-63
2023/03/30 13:47:08;;;;;;;9.23;2.05;;;14.60;98.80;;;;;;10522346;28;20065;-63
2023/03/30 13:52:16;;;;;;;7.70;1.77;;;14.60;98.70;;;;;;10525114;28;20111;-64
2023/03/30 13:57:25;;;;;;;9.52;1.33;;;14.70;98.70;;;;;;10520111;28;20342;-64
2023/03/30 14:02:28;;;;;;;8.20;1.58;;;14.80;98.90;;;;;;10523609;28;20373;-63
2023/03/30 14:07:38;;;;;;;6.07;1.73;;;14.70;98.70;;;;;;10524159;28;20441;-63
2023/03/30 14:12:41;;;;;;;6.18;1.58;;;14.80;98.70;;;;;;10517028;28;20043;-64
2023/03/30 14:17:50;;;;;;;8.30;1.63;;;14.70;98.70;;;;;;10521055;28;20035;-63
2023/03/30 14:22:52;;;;;;;10.15;2.10;;;14.70;98.70;;;;;;10516616;28;20095;-64
2023/03/30 14:27:56;;;;;;;9.10;2.17;;;14.80;98.80;;;;;;10528088;28;20589;-64
2023/03/30 14:33:11;;;;;;;8.98;1.52;;;14.90;98.70;;;;;;10533507;28;20027;-63
2023/03/30 14:38:21;;;;;;;9.85;1.95;;;15.10;98.40;;;;;;10528815;28;20359;-64
2023/03/30 14:43:28;;;;;;;13.75;2.92;;;15.20;98.30;;;;;;10531351;28;20385;-63
2023/03/30 14:48:32;;;;;;;8.85;2.28;;;15.30;98.20;;;;;;10532265;28;20031;-63
2023/03/30 14:53:33;;;;;;;9.43;2.03;;;15.40;98.10;;;;;;10529848;28;20165;-64
2023/03/30 14:58:36;;;;;;;6.75;1.58;;;15.50;98.10;;;;;;10528493;28;20052;-64
2023/03/30 15:03:38;;;;;;;9.63;2.13;;;15.60;98.00;;;;;;10531661;28;20028;-63
2023/03/30 15:08:39;;;;;;;7.85;1.55;;;15.60;97.80;;;;;;10530900;28;20024;-63
2023/03/30 15:13:48;;;;;;;9.90;2.15;;;15.70;97.80;;;;;;10529138;28;20020;-65
2023/03/30 15:18:52;;;;;;;7.28;1.50;;;15.60;97.80;;;;;;10530325;28;20503;-63
2023/03/30 15:23:52;;;;;;;8.10;1.67;;;15.50;98.00;;;;;;10527711;28;20492;-63
2023/03/30 15:28:57;;;;;;;11.75;2.10;;;15.50;98.10;;;;;;10524897;28;20027;-64
2023/03/30 15:34:00;;;;;;;7.63;1.50;;;15.50;98.10;;;;;;10525731;28;20506;-63
2023/03/30 15:39:02;;;;;;;9.73;1.85;;;15.50;98.10;;;;;;10528649;28;20024;-63
2023/03/30 15:44:17;;;;;;;9.38;1.98;;;15.60;98.20;;;;;;10528022;28;20046;-63
2023/03/30 15:49:22;;;;;;;8.98;2.00;;;15.40;98.20;;;;;;10529913;28;20021;-64
2023/03/30 15:54:43;;;;;;;8.38;1.60;;;15.40;98.30;;;;;;10527115;28;20024;-64
2023/03/30 15:59:45;;;;;;;8.15;1.70;;;15.30;98.30;;;;;;10528542;28;20028;-64
2023/03/30 16:04:48;;;;;;;9.60;2.30;;;15.30;98.60;;;;;;10525209;28;20069;-64
2023/03/30 16:09:49;;;;;;;12.25;2.08;;;15.20;98.90;;;;;;10526693;28;20120;-64
2023/03/30 16:14:50;;;;;;;6.70;1.63;;;15.10;98.70;;;;;;10526618;28;20119;-63
2023/03/30 16:19:51;;;;;;;8.10;1.27;;;15.10;98.80;;;;;;10525950;28;20077;-63
2023/03/30 16:24:52;;;;;;;7.47;1.63;;;15.10;98.90;;;;;;10521945;28;20038;-64
2023/03/30 16:29:52;;;;;;;7.30;1.42;;;15.00;98.90;;;;;;10524347;28;20039;-64
2023/03/30 16:34:53;;;;;;;8.90;1.70;;;15.00;99.00;;;;;;10524869;28;20602;-64
2023/03/30 16:39:53;;;;;;;7.18;1.30;;;15.00;99.10;;;;;;10528861;28;20047;-63
2023/03/30 16:44:54;;;;;;;6.57;1.35;;;14.90;99.10;;;;;;10528482;28;20040;-63
2023/03/30 16:49:55;;;;;;;8.02;1.90;;;14.90;99.10;;;;;;10527764;28;20495;-63
2023/03/30 16:54:55;;;;;;;9.20;1.63;;;14.90;99.20;;;;;;10525982;28;20036;-63
2023/03/30 16:59:56;;;;;;;8.68;1.80;;;14.90;99.20;;;;;;10526215;28;20016;-65
2023/03/30 17:04:57;;;;;;;7.93;1.92;;;14.90;99.30;;;;;;10524622;28;20032;-65
2023/03/30 17:09:58;;;;;;;7.03;2.03;;;14.80;99.30;;;;;;10519923;28;20580;-64
2023/03/30 17:15:02;;;;;;;7.65;1.45;;;14.70;99.30;;;;;;10522731;28;20032;-63
2023/03/30 17:20:15;;;;;;;10.98;1.63;;;14.70;99.30;;;;;;10515788;28;20028;-63
2023/03/30 17:25:19;;;;;;;11.25;1.65;;;14.70;99.30;;;;;;10525471;28;20024;-63
2023/03/30 17:30:23;;;;;;;6.05;1.40;;;14.70;99.40;;;;;;10525410;28;20067;-64
2023/03/30 17:35:25;;;;;;;7.82;1.63;;;14.60;99.40;;;;;;10523456;28;20104;-64
2023/03/30 17:40:29;;;;;;;7.13;1.20;;;14.60;99.50;;;;;;10523430;28;20066;-64
2023/03/30 17:45:32;;;;;;;10.38;1.40;;;14.60;99.50;;;;;;10522238;28;20024;-63
2023/03/30 17:50:38;;;;;;;9.15;1.50;;;14.60;99.50;;;;;;10518343;28;20050;-64
2023/03/30 17:55:39;;;;;;;7.60;2.22;;;14.50;99.50;;;;;;10515827;28;20373;-63
2023/03/30 18:00:40;;;;;;;6.75;1.60;;;14.50;99.50;;;;;;10521939;28;20012;-63
2023/03/30 18:05:41;;;;;;;6.30;1.60;;;14.60;99.60;;;;;;10519185;28;20479;-64
2023/03/30 18:10:47;;;;;;;7.50;2.05;;;14.40;99.60;;;;;;10521038;28;20025;-64
2023/03/30 18:15:49;;;;;;;7.18;1.63;;;14.50;99.60;;;;;;10519315;28;20036;-65
2023/03/30 18:20:52;;;;;;;9.95;2.03;;;14.40;99.60;;;;;;10518383;28;20039;-64
2023/03/30 18:25:52;;;;;;;5.47;1.10;;;14.30;99.60;;;;;;10512857;28;20448;-64
2023/03/30 18:30:56;;;;;;;9.05;1.50;;;14.30;99.70;;;;;;10511992;28;20527;-64
2023/03/30 18:35:56;;;;;;;6.10;1.58;;;14.30;99.70;;;;;;10521053;28;20024;-65
2023/03/30 18:40:57;;;;;;;9.60;2.00;;;14.30;99.70;;;;;;10515786;28;20338;-65
2023/03/30 18:45:58;;;;;;;7.80;2.03;;;14.20;99.70;;;;;;10509628;28;20462;-65
2023/03/30 18:50:58;;;;;;;9.60;2.28;;;14.20;99.80;;;;;;10523676;28;20032;-65
2023/03/30 18:56:00;;;;;;;9.55;1.65;;;14.20;99.80;;;;;;10521909;28;20057;-65
2023/03/30 19:01:00;;;;;;;4.97;1.50;;;14.10;99.80;;;;;;10518446;28;20065;-65
2023/03/30 19:06:01;;;;;;;5.70;1.45;;;14.10;99.80;;;;;;10520476;28;20099;-65
2023/03/30 19:11:02;;;;;;;8.05;1.35;;;14.10;99.80;;;;;;10513374;28;20028;-64
2023/03/30 19:16:04;;;;;;;5.38;1.20;;;14.00;99.80;;;;;;10524378;28;20020;-65
2023/03/30 19:21:05;;;;;;;6.03;1.30;;;14.00;99.80;;;;;;10529263;28;20065;-64
2023/03/30 19:26:06;;;;;;;7.25;1.73;;;14.00;99.80;;;;;;10529230;28;20418;-65
2023/03/30 19:31:11;;;;;;;6.25;1.63;;;13.90;99.80;;;;;;10523167;28;20050;-64
2023/03/30 19:36:12;;;;;;;6.03;1.42;;;13.90;99.80;;;;;;10524813;28;20024;-64
2023/03/30 19:41:14;;;;;;;6.90;1.45;;;13.80;99.80;;;;;;10525232;28;20296;-65
2023/03/30 19:46:15;;;;;;;7.32;1.25;;;13.90;99.80;;;;;;10525756;28;20024;-64
2023/03/30 19:51:17;;;;;;;8.05;1.90;;;13.80;99.80;;;;;;10520554;28;20020;-64
2023/03/30 19:56:18;;;;;;;6.72;1.40;;;13.80;99.80;;;;;;10523583;28;20472;-65
2023/03/30 20:01:18;;;;;;;5.85;1.55;;;13.80;99.90;;;;;;10527059;28;20051;-64
2023/03/30 20:06:20;;;;;;;5.93;1.35;;;13.90;99.90;;;;;;10522413;28;20024;-64
2023/03/30 20:11:21;;;;;;;7.10;1.55;;;13.70;99.80;;;;;;10526068;28;20016;-65
2023/03/30 20:16:24;;;;;;;4.60;1.17;;;13.70;99.90;;;;;;10525455;28;20523;-64
2023/03/30 20:21:25;;;;;;;6.03;1.30;;;13.60;99.90;;;;;;10526131;28;20441;-64
2023/03/30 20:26:28;;;;;;;8.68;1.30;;;13.70;99.90;;;;;;10518773;28;20027;-64
2023/03/30 20:31:29;;;;;;;6.78;1.40;;;13.60;99.90;;;;;;10518564;28;20024;-65
2023/03/30 20:36:30;;;;;;;5.35;1.10;;;13.60;99.90;;;;;;10519864;28;20095;-65
2023/03/30 20:41:36;;;;;;;8.48;1.33;;;13.50;99.90;;;;;;10527370;28;20548;-64
2023/03/30 20:46:38;;;;;;;9.13;1.40;;;13.60;99.90;;;;;;10526375;28;20087;-65
2023/03/30 20:51:42;;;;;;;4.55;1.05;;;13.50;99.90;;;;;;10527345;28;20027;-65
2023/03/30 20:56:42;;;;;;;6.93;1.40;;;13.50;99.90;;;;;;10519156;28;20050;-64
2023/03/30 21:01:44;;;;;;;7.57;1.30;;;13.40;99.90;;;;;;10520776;28;20391;-64
2023/03/30 21:06:46;;;;;;;7.40;1.45;;;13.40;99.90;;;;;;10519704;28;20664;-63
2023/03/30 21:11:47;;;;;;;5.22;1.67;;;13.40;99.90;;;;;;10516108;28;20070;-63
2023/03/30 21:16:47;;;;;;;7.28;1.30;;;13.30;99.90;;;;;;10522979;28;20043;-64
2023/03/30 21:21:48;;;;;;;7.40;1.50;;;13.30;99.90;;;;;;10520974;28;20028;-64
2023/03/30 21:26:48;;;;;;;8.88;2.05;;;13.30;99.90;;;;;;10520546;28;20028;-64
2023/03/30 21:31:49;;;;;;;6.78;1.70;;;13.30;99.90;;;;;;10520228;28;20058;-64
2023/03/30 21:36:50;;;;;;;4.45;1.25;;;13.20;99.90;;;;;;10515283;28;20373;-63
2023/03/30 21:41:51;;;;;;;6.38;1.88;;;13.20;99.90;;;;;;10516076;28;20056;-64
2023/03/30 21:46:52;;;;;;;10.25;1.67;;;13.20;99.90;;;;;;10518837;28;20124;-64
2023/03/30 21:51:52;;;;;;;7.30;1.58;;;13.20;99.90;;;;;;10523929;28;20036;-64
2023/03/30 21:56:53;;;;;;;8.40;1.35;;;13.10;99.90;;;;;;10517798;28;20016;-65
2023/03/30 22:01:53;;;;;;;9.25;1.20;;;13.10;99.90;;;;;;10517469;28;20046;-64
2023/03/30 22:06:54;;;;;;;8.05;1.52;;;13.10;99.90;;;;;;10522135;28;20028;-64
2023/03/30 22:11:55;;;;;;;5.63;1.40;;;13.10;99.90;;;;;;10521452;28;20437;-65
2023/03/30 22:16:56;;;;;;;6.82;1.40;;;13.10;99.90;;;;;;10523452;28;20484;-64
2023/03/30 22:21:57;;;;;;;8.45;1.40;;;13.10;99.90;;;;;;10520235;28;20047;-64
2023/03/30 22:26:58;;;;;;;5.25;1.95;;;13.10;99.90;;;;;;10522213;28;20474;-64
2023/03/30 22:31:58;;;;;;;8.43;1.40;;;13.10;99.90;;;;;;10519270;28;20460;-64
2023/03/30 22:36:59;;;;;;;7.32;2.35;;;13.00;99.90;;;;;;10520261;28;20046;-64
2023/03/30 22:41:59;;;;;;;4.95;1.17;;;13.00;99.90;;;;;;10522164;28;20035;-64
2023/03/30 22:47:00;;;;;;;8.32;2.30;;;13.00;99.90;;;;;;10520952;28;20074;-64
2023/03/30 22:52:03;;;;;;;6.80;1.48;;;13.00;99.90;;;;;;10527837;28;20510;-64
2023/03/30 22:57:04;;;;;;;7.00;1.33;;;13.00;99.90;;;;;;10527516;28;20024;-63
2023/03/30 23:02:05;;;;;;;7.78;1.42;;;13.00;99.90;;;;;;10523266;28;20047;-65
2023/03/30 23:07:07;;;;;;;7.55;1.90;;;12.90;99.90;;;;;;10527558;28;20510;-64
2023/03/30 23:12:08;;;;;;;7.32;1.77;;;12.90;99.90;;;;;;10525169;28;20575;-64
2023/03/30 23:17:08;;;;;;;11.82;1.98;;;12.90;99.90;;;;;;10523871;28;20030;-63
2023/03/30 23:22:10;;;;;;;7.43;1.95;;;12.90;99.90;;;;;;10526732;28;20163;-65
2023/03/30 23:27:11;;;;;;;4.82;1.42;;;12.90;99.90;;;;;;10528561;28;20548;-64
2023/03/30 23:32:12;;;;;;;7.15;1.30;;;12.90;99.90;;;;;;10528488;28;20020;-65
2023/03/30 23:37:13;;;;;;;8.23;2.05;;;12.80;99.90;;;;;;10528386;28;20266;-64
2023/03/30 23:42:13;;;;;;;9.70;1.70;;;12.80;99.90;;;;;;10529361;28;20081;-64
2023/03/30 23:47:15;;;;;;;6.43;1.77;;;12.80;99.90;;;;;;10528381;28;20019;-64
2023/03/30 23:52:15;;;;;;;7.10;1.83;;;12.80;99.90;;;;;;10528467;28;20045;-65
2023/03/30 23:57:16;;;;;;;7.70;1.77;;;12.80;99.90;;;;;;10522611;28;20034;-65
